Latest Coastal Weather Observations for Wilsons Promontory

IDT60701

Issued at 4:02 pm EDT Monday 1 March 2021 (issued every 10 minutes, with the page automatically refreshed every 10 minutes)

About coastal observations | Map of coastal stations | Coastal observations for TAS | Marine services | Other Formats
Station Details ID: 085096 Name: WILSONS PROMONTORY LIGHTHOUSE Lat: -39.13 Lon: 146.42 Height: 95.0 m
Data from the previous 72 hours. | See also: Recent months at Wilsons Promontory
Date/Time
EDT
Wind Sea
Height
m
Swell Vis
km
Cloud Weather Temp
°C
Press
MSL
hPa
Rain since
9am
mm
Dir  Spd
kts
Gust
kts
Height
m
Period
s
Dir
01/04:00pm W 27 41 - - - - - - - 17.9 1007.4 0.0
01/03:30pm W 27 43 - - - - - - - 17.3 - 0.0
01/03:00pm W 24 35 - - - - - - - 17.2 1008.1 0.0
01/02:30pm W 26 36 - - - - - - - 18.2 - 0.0
01/02:06pm W 20 30 - - - - - - - 18.6 - 0.0
01/02:00pm W 23 30 - - - - - - - 18.5 - 0.0
01/01:30pm W 27 34 - - - - - - - 18.7 - 0.0
01/01:00pm W 22 32 - - - - - - - 18.0 - 0.0
01/12:42pm W 25 35 - - - - - - - 17.9 - 0.0
01/12:30pm W 28 33 - - - - - - - 18.5 - 0.0
01/12:00pm W 16 26 - - - - - - - 18.8 1009.3 0.0
01/11:30am W 16 27 - - - - - - - 19.2 - 0.0
01/11:00am W 18 29 - - - - - - - 18.4 - 0.0
01/10:42am W 16 26 - - - - - - - 18.6 - 0.0
01/10:30am W 18 26 - - - - - - - 18.3 - 0.0
01/10:15am W 18 28 - - - - - - - 18.2 - 0.0
01/10:00am W 20 26 - - - - - - - 17.3 - 0.0
01/09:30am W 17 23 - - - - - - - 17.4 - 0.0
01/09:00am W 25 31 - - - - - - - 17.4 1008.3 0.0
01/08:30am W 19 26 - - - - - - - 16.7 - 0.0
01/08:00am W 22 29 - - - - - - - 16.6 - 0.0
01/07:30am W 23 28 - - - - - - - 16.4 - 0.0
01/07:00am W 22 27 - - - - - - - 16.4 - 0.0
01/06:30am W 20 25 - - - - - - - 16.5 - 0.0
01/06:27am W 19 24 - - - - - - - 16.6 - 0.0
01/06:00am W 9 13 - - - - - - - 17.1 1008.0 0.0
01/05:30am W 11 16 - - - - - - - 17.0 - 0.0
01/05:00am WSW 9 11 - - - - - - - 17.2 - 0.0
01/04:30am WSW 6 8 - - - - - - - 17.1 - 0.0
01/04:00am WSW 6 8 - - - - - - - 17.2 - 0.0
01/03:30am W 8 10 - - - - - - - 17.3 - 0.0
01/03:00am WSW 10 13 - - - - - - - 17.4 1008.4 0.0
01/02:30am W 6 7 - - - - - - - 17.6 - 0.0
01/02:00am WNW 3 6 - - - - - - - 17.2 - 0.0
01/01:30am N 9 12 - - - - - - - 17.5 - 0.0
01/01:00am NNE 11 17 - - - - - - - 17.2 - 0.0
01/12:30am NNE 13 19 - - - - - - - 17.1 - 0.0
01/12:00am N 13 18 - - - - - - - 17.0 1009.3 0.0
 
Date/Time
EDT
Wind Sea
Height
m
Swell Vis
km
Cloud Weather Temp
°C
Press
MSL
hPa
Rain since
9am
mm
Dir  Spd
kts
Gust
kts
Height
m
Period
s
Dir
28/11:30pm N 14 20 - - - - - - - 17.1 - 0.0
28/11:00pm NNE 14 19 - - - - - - - 17.2 - 0.0
28/10:30pm N 13 18 - - - - - - - 17.1 - 0.0
28/10:00pm NNE 15 21 - - - - - - - 17.2 - 0.0
28/09:30pm NNE 13 17 - - - - - - - 17.2 - 0.0
28/09:00pm NNE 12 17 - - - - - - - 17.1 1010.1 0.0
28/08:30pm NNE 12 16 - - - - - - - 17.0 - 0.0
28/08:00pm NNE 10 15 - - - - - - - 17.2 - 0.0
28/07:30pm NNE 11 15 - - - - - - - 17.6 - 0.0
28/07:00pm NNE 13 16 - - - - - - - 17.5 - 0.0
28/06:30pm NE 12 16 - - - - - - - 17.6 - 0.0
28/06:00pm NE 11 14 - - - - - - - 18.3 1010.4 0.0
28/05:30pm NE 12 15 - - - - - - - 18.0 - 0.0
28/05:00pm NE 11 15 - - - - - - - 18.6 - 0.0
28/04:30pm NE 11 15 - - - - - - - 18.6 - 0.0
28/04:00pm NE 11 14 - - - - - - - 19.4 - 0.0
28/03:30pm NE 11 14 - - - - - - - 19.2 - 0.0
28/03:00pm ENE 10 12 - - - - - - - 19.8 1011.7 0.0
28/02:30pm ENE 10 12 - - - - - - - 19.9 - 0.0
28/02:00pm NE 9 13 - - - - - - - 19.5 - 0.0
28/01:30pm NE 10 13 - - - - - - - 19.8 - 0.0
28/01:00pm ENE 11 14 - - - - - - - 20.0 - 0.0
28/12:30pm NE 10 13 - - - - - - - 20.0 - 0.0
28/12:00pm ENE 10 14 - - - - - - - 20.2 1013.0 0.0
28/11:30am ENE 10 12 - - - - - - - 20.3 - 0.0
28/11:00am NE 9 11 - - - - - - - 20.4 - 0.0
28/10:30am NE 10 13 - - - - - - - 19.6 - 0.0
28/10:00am NE 10 13 - - - - - - - 19.2 - 0.0
28/09:30am NE 9 11 - - - - - - - 19.4 - 0.0
28/09:00am NE 9 12 - - - - - - - 18.9 1013.2 2.4
28/08:30am NNE 9 12 - - - - - - - 18.1 - 2.4
28/08:00am NNE 9 11 - - - - - - - 16.9 - 2.4
28/07:30am NNE 6 7 - - - - - - - 15.6 - 2.4
28/07:00am NNE 6 8 - - - - - - - 15.5 - 2.4
28/06:30am N 5 7 - - - - - - - 15.6 - 2.4
28/06:00am N 6 8 - - - - - - - 15.7 1012.5 2.4
28/05:30am NNE 7 9 - - - - - - - 15.8 - 2.4
28/05:00am NNE 9 12 - - - - - - - 15.9 - 2.4
28/04:30am NNE 9 13 - - - - - - - 15.9 - 2.4
28/04:00am NNE 10 14 - - - - - - - 16.0 - 2.4
28/03:30am NNE 9 13 - - - - - - - 16.0 - 2.4
28/03:00am NNE 9 15 - - - - - - - 16.1 1012.6 2.4
28/02:30am NNE 12 17 - - - - - - - 16.4 - 2.4
28/02:00am NNE 11 16 - - - - - - - 16.4 - 2.4
28/01:30am NE 13 16 - - - - - - - 16.6 - 2.4
28/01:00am NE 12 17 - - - - - - - 16.6 - 2.4
28/12:30am NE 13 17 - - - - - - - 16.5 - 2.4
28/12:00am ENE 13 16 - - - - - - - 16.5 1013.1 2.4
 
Date/Time
EDT
Wind Sea
Height
m
Swell Vis
km
Cloud Weather Temp
°C
Press
MSL
hPa
Rain since
9am
mm
Dir  Spd
kts
Gust
kts
Height
m
Period
s
Dir
27/11:30pm NE 12 16 - - - - - - - 16.7 - 2.4
27/11:00pm ENE 12 16 - - - - - - - 16.7 - 2.4
27/10:30pm ENE 12 14 - - - - - - - 16.5 - 2.4
27/10:00pm ENE 10 12 - - - - - - - 16.0 - 2.4
27/09:30pm ENE 8 10 - - - - - - - 15.6 - 2.4
27/09:00pm NNE 7 11 - - - - - - - 15.7 1013.5 2.4
27/08:30pm NNE 7 11 - - - - - - - 15.5 - 2.0
27/08:00pm NNE 9 13 - - - - - - - 15.5 - 0.8
27/07:30pm NNE 8 14 - - - - - - - 16.8 - 0.0
27/07:00pm ENE 13 16 - - - - - - - 16.6 - 0.0
27/06:30pm ENE 14 17 - - - - - - - 17.0 - 0.0
27/06:00pm ENE 14 17 - - - - - - - 17.2 1011.9 0.0
27/05:30pm ENE 16 19 - - - - - - - 17.2 - 0.0
27/05:00pm ENE 17 19 - - - - - - - 17.2 - 0.0
27/04:30pm ENE 15 18 - - - - - - - 17.4 - 0.0
27/04:00pm NE 15 18 - - - - - - - 17.5 - 0.0
27/03:30pm NE 15 19 - - - - - - - 17.5 - 0.0
27/03:00pm NE 13 18 - - - - - - - 17.5 1012.5 0.0
27/02:30pm ENE 16 20 - - - - - - - 17.4 - 0.0
27/02:00pm NE 15 19 - - - - - - - 17.3 - 0.0
27/01:30pm NE 16 20 - - - - - - - 17.4 - 0.0
27/01:00pm NE 17 23 - - - - - - - 17.4 - 0.0
27/12:30pm NE 18 22 - - - - - - - 17.4 - 0.0
27/12:00pm NE 20 24 - - - - - - - 17.1 1012.9 0.0
27/11:30am NE 16 21 - - - - - - - 17.1 - 0.0
27/11:00am NE 17 21 - - - - - - - 16.7 - 0.0
27/10:30am NE 17 22 - - - - - - - 16.6 - 0.0
27/10:00am NE 17 22 - - - - - - - 16.4 - 0.0
27/09:30am NE 18 22 - - - - - - - 16.3 - 0.0
27/09:00am NE 18 23 - - - - - - - 16.1 1013.5 0.0
27/08:30am ENE 18 22 - - - - - - - 15.8 - 0.0
27/08:00am NE 16 21 - - - - - - - 15.6 - 0.0
27/07:30am NE 17 20 - - - - - - - 15.3 - 0.0
27/07:00am NE 15 18 - - - - - - - 15.2 - 0.0
27/06:30am ENE 12 16 - - - - - - - 14.8 - 0.0
27/06:00am NNE 8 11 - - - - - - - 14.1 1012.9 0.0
27/05:30am NE 8 11 - - - - - - - 14.1 - 0.0
27/05:00am NNE 6 8 - - - - - - - 13.9 - 0.0
27/04:30am NE 7 9 - - - - - - - 13.8 - 0.0
27/04:00am NNE 7 8 - - - - - - - 13.9 - 0.0
27/03:30am ENE 5 6 - - - - - - - 14.1 - 0.0
27/03:00am CALM 0 0 - - - - - - - 14.3 1013.5 0.0
27/02:30am CALM 0 0 - - - - - - - 14.1 - 0.0
27/02:00am CALM 0 0 - - - - - - - 14.2 - 0.0
27/01:30am N 2 4 - - - - - - - 14.0 - 0.0
27/01:00am NNW 2 3 - - - - - - - 14.1 - 0.0
27/12:30am W 4 6 - - - - - - - 14.4 - 0.0
27/12:00am W 6 8 - - - - - - - 14.5 1014.2 0.0
 
Date/Time
EDT
Wind Sea
Height
m
Swell Vis
km
Cloud Weather Temp
°C
Press
MSL
hPa
Rain since
9am
mm
Dir  Spd
kts
Gust
kts
Height
m
Period
s
Dir
26/11:30pm W 6 8 - - - - - - - 14.4 - 0.0
26/11:00pm W 7 8 - - - - - - - 14.5 - 0.0
26/10:30pm W 7 9 - - - - - - - 14.4 - 0.0
26/10:00pm W 9 11 - - - - - - - 14.6 - 0.0
26/09:30pm W 10 13 - - - - - - - 14.5 - 0.0
26/09:00pm W 10 14 - - - - - - - 14.4 1013.6 0.0
26/08:30pm W 10 15 - - - - - - - 14.7 - 0.0
26/08:00pm W 10 15 - - - - - - - 14.9 - 0.0
26/07:30pm W 9 13 - - - - - - - 15.1 - 0.0
26/07:00pm W 13 18 - - - - - - - 15.9 - 0.0
26/06:30pm WSW 17 22 - - - - - - - 15.7 - 0.0
26/06:00pm WSW 17 21 - - - - - - - 15.7 1012.5 0.0
26/05:30pm WSW 20 25 - - - - - - - 16.2 - 0.0
26/05:00pm WSW 21 27 - - - - - - - 15.7 - 0.0
26/04:30pm WSW 24 28 - - - - - - - 15.9 - 0.0

Other formats

Comma delimited format used in spreadsheet applications
http://www.bom.gov.au/fwo/IDT60701/IDT60701.94893.axf

JavaScript Object Notation format (JSON) in row-major order
http://www.bom.gov.au/fwo/IDT60701/IDT60701.94893.json

Data quality

Most of these data are generated automatically and are frequently updated. Quality checks on data are not normally performed. It is possible for incorrect values to appear. Refer to information at About Latest Weather Observations and please check the disclaimer before using these data.